sensor_id;sensor_type;location;lat;lon;timestamp;P1;durP1;ratioP1;P2;durP2;ratioP2
20802;SDS011;10562;-33.856;151.182;2023-04-25T00:00:08;26.48;;;14.93;;
20802;SDS011;10562;-33.856;151.182;2023-04-25T00:02:39;27.77;;;14.85;;
20802;SDS011;10562;-33.856;151.182;2023-04-25T00:05:10;24.38;;;15.77;;
20802;SDS011;10562;-33.856;151.182;2023-04-25T00:07:41;25.05;;;17.25;;
20802;SDS011;10562;-33.856;151.182;2023-04-25T00:10:14;21.05;;;17.05;;
20802;SDS011;10562;-33.856;151.182;2023-04-25T00:12:44;20.55;;;14.57;;
20802;SDS011;10562;-33.856;151.182;2023-04-25T00:15:15;21.55;;;14.32;;
20802;SDS011;10562;-33.856;151.182;2023-04-25T00:17:46;18.05;;;11.23;;
20802;SDS011;10562;-33.856;151.182;2023-04-25T00:20:19;20.65;;;13.50;;
20802;SDS011;10562;-33.856;151.182;2023-04-25T00:22:50;21.08;;;7.30;;
20802;SDS011;10562;-33.856;151.182;2023-04-25T00:25:24;13.20;;;4.82;;
20802;SDS011;10562;-33.856;151.182;2023-04-25T00:27:55;15.32;;;3.00;;
20802;SDS011;10562;-33.856;151.182;2023-04-25T00:30:26;12.57;;;2.78;;
20802;SDS011;10562;-33.856;151.182;2023-04-25T00:32:57;8.73;;;2.80;;
20802;SDS011;10562;-33.856;151.182;2023-04-25T00:35:27;11.77;;;3.45;;
20802;SDS011;10562;-33.856;151.182;2023-04-25T00:37:59;10.73;;;3.40;;
20802;SDS011;10562;-33.856;151.182;2023-04-25T00:40:32;8.15;;;2.72;;
20802;SDS011;10562;-33.856;151.182;2023-04-25T00:43:02;10.18;;;2.53;;
20802;SDS011;10562;-33.856;151.182;2023-04-25T00:45:33;10.32;;;2.55;;
20802;SDS011;10562;-33.856;151.182;2023-04-25T00:48:08;12.20;;;2.60;;
20802;SDS011;10562;-33.856;151.182;2023-04-25T00:50:39;12.77;;;2.75;;
20802;SDS011;10562;-33.856;151.182;2023-04-25T00:53:11;11.95;;;2.70;;
20802;SDS011;10562;-33.856;151.182;2023-04-25T00:55:44;13.05;;;2.42;;
20802;SDS011;10562;-33.856;151.182;2023-04-25T00:58:16;11.55;;;2.60;;
20802;SDS011;10562;-33.856;151.182;2023-04-25T01:00:48;11.48;;;3.00;;
20802;SDS011;10562;-33.856;151.182;2023-04-25T01:03:20;11.18;;;2.72;;
20802;SDS011;10562;-33.856;151.182;2023-04-25T01:05:52;10.63;;;2.83;;
20802;SDS011;10562;-33.856;151.182;2023-04-25T01:08:23;8.10;;;2.30;;
20802;SDS011;10562;-33.856;151.182;2023-04-25T01:10:56;10.90;;;2.70;;
20802;SDS011;10562;-33.856;151.182;2023-04-25T01:13:27;11.82;;;2.40;;
20802;SDS011;10562;-33.856;151.182;2023-04-25T01:15:58;11.13;;;2.80;;
20802;SDS011;10562;-33.856;151.182;2023-04-25T01:18:29;8.30;;;2.50;;
20802;SDS011;10562;-33.856;151.182;2023-04-25T01:21:07;10.15;;;2.83;;
20802;SDS011;10562;-33.856;151.182;2023-04-25T01:23:39;10.35;;;2.90;;
20802;SDS011;10562;-33.856;151.182;2023-04-25T01:26:10;8.13;;;2.60;;
20802;SDS011;10562;-33.856;151.182;2023-04-25T01:28:41;8.25;;;2.60;;
20802;SDS011;10562;-33.856;151.182;2023-04-25T01:31:12;8.27;;;2.90;;
20802;SDS011;10562;-33.856;151.182;2023-04-25T01:33:44;12.48;;;2.90;;
20802;SDS011;10562;-33.856;151.182;2023-04-25T01:36:17;9.23;;;2.70;;
20802;SDS011;10562;-33.856;151.182;2023-04-25T01:38:49;8.50;;;2.60;;
20802;SDS011;10562;-33.856;151.182;2023-04-25T01:41:20;10.55;;;3.00;;
20802;SDS011;10562;-33.856;151.182;2023-04-25T01:43:51;9.63;;;2.53;;
20802;SDS011;10562;-33.856;151.182;2023-04-25T01:46:22;8.07;;;2.50;;
20802;SDS011;10562;-33.856;151.182;2023-04-25T01:48:53;12.18;;;2.75;;
20802;SDS011;10562;-33.856;151.182;2023-04-25T01:51:25;10.82;;;3.05;;
20802;SDS011;10562;-33.856;151.182;2023-04-25T01:53:57;9.45;;;2.42;;
20802;SDS011;10562;-33.856;151.182;2023-04-25T01:56:32;7.63;;;2.15;;
20802;SDS011;10562;-33.856;151.182;2023-04-25T01:59:05;8.05;;;3.08;;
20802;SDS011;10562;-33.856;151.182;2023-04-25T02:01:36;6.72;;;2.70;;
20802;SDS011;10562;-33.856;151.182;2023-04-25T02:04:08;7.70;;;2.33;;
20802;SDS011;10562;-33.856;151.182;2023-04-25T02:06:40;9.90;;;2.47;;
20802;SDS011;10562;-33.856;151.182;2023-04-25T02:09:11;9.30;;;2.85;;
20802;SDS011;10562;-33.856;151.182;2023-04-25T02:11:42;7.18;;;2.30;;
20802;SDS011;10562;-33.856;151.182;2023-04-25T02:14:13;9.20;;;2.30;;
20802;SDS011;10562;-33.856;151.182;2023-04-25T02:16:47;7.65;;;2.30;;
20802;SDS011;10562;-33.856;151.182;2023-04-25T02:19:18;9.65;;;2.45;;
20802;SDS011;10562;-33.856;151.182;2023-04-25T02:21:50;9.07;;;2.20;;
20802;SDS011;10562;-33.856;151.182;2023-04-25T02:24:23;14.55;;;2.50;;
20802;SDS011;10562;-33.856;151.182;2023-04-25T02:26:54;8.98;;;2.58;;
20802;SDS011;10562;-33.856;151.182;2023-04-25T02:29:25;12.60;;;2.38;;
20802;SDS011;10562;-33.856;151.182;2023-04-25T02:31:55;16.00;;;2.33;;
20802;SDS011;10562;-33.856;151.182;2023-04-25T02:34:26;11.15;;;2.33;;
20802;SDS011;10562;-33.856;151.182;2023-04-25T02:36:59;12.13;;;2.40;;
20802;SDS011;10562;-33.856;151.182;2023-04-25T02:39:30;10.68;;;2.20;;
20802;SDS011;10562;-33.856;151.182;2023-04-25T02:42:00;13.05;;;2.22;;
20802;SDS011;10562;-33.856;151.182;2023-04-25T02:44:31;13.95;;;2.40;;
20802;SDS011;10562;-33.856;151.182;2023-04-25T02:47:02;10.70;;;2.35;;
20802;SDS011;10562;-33.856;151.182;2023-04-25T02:49:34;12.90;;;2.20;;
20802;SDS011;10562;-33.856;151.182;2023-04-25T02:52:06;15.15;;;2.70;;
20802;SDS011;10562;-33.856;151.182;2023-04-25T02:54:38;15.32;;;2.47;;
20802;SDS011;10562;-33.856;151.182;2023-04-25T02:57:09;15.57;;;2.50;;
20802;SDS011;10562;-33.856;151.182;2023-04-25T02:59:39;15.52;;;2.38;;
20802;SDS011;10562;-33.856;151.182;2023-04-25T03:02:10;11.85;;;2.30;;
20802;SDS011;10562;-33.856;151.182;2023-04-25T03:04:41;13.90;;;2.30;;
20802;SDS011;10562;-33.856;151.182;2023-04-25T03:07:14;16.67;;;2.42;;
20802;SDS011;10562;-33.856;151.182;2023-04-25T03:09:45;12.93;;;2.10;;
20802;SDS011;10562;-33.856;151.182;2023-04-25T03:12:15;13.93;;;2.35;;
20802;SDS011;10562;-33.856;151.182;2023-04-25T03:14:46;13.00;;;2.15;;
20802;SDS011;10562;-33.856;151.182;2023-04-25T03:17:17;11.32;;;2.17;;
20802;SDS011;10562;-33.856;151.182;2023-04-25T03:19:48;11.10;;;2.28;;
20802;SDS011;10562;-33.856;151.182;2023-04-25T03:22:20;8.65;;;2.17;;
20802;SDS011;10562;-33.856;151.182;2023-04-25T03:24:51;11.80;;;2.42;;
20802;SDS011;10562;-33.856;151.182;2023-04-25T03:27:22;14.30;;;2.35;;
20802;SDS011;10562;-33.856;151.182;2023-04-25T03:29:53;12.57;;;1.90;;
20802;SDS011;10562;-33.856;151.182;2023-04-25T03:32:23;12.63;;;2.15;;
20802;SDS011;10562;-33.856;151.182;2023-04-25T03:34:54;13.82;;;2.42;;
20802;SDS011;10562;-33.856;151.182;2023-04-25T03:37:27;17.25;;;2.60;;
20802;SDS011;10562;-33.856;151.182;2023-04-25T03:39:58;12.95;;;2.53;;
20802;SDS011;10562;-33.856;151.182;2023-04-25T03:42:29;13.32;;;2.40;;
20802;SDS011;10562;-33.856;151.182;2023-04-25T03:45:00;13.90;;;2.67;;
20802;SDS011;10562;-33.856;151.182;2023-04-25T03:47:30;10.18;;;1.83;;
20802;SDS011;10562;-33.856;151.182;2023-04-25T03:50:01;12.23;;;2.33;;
20802;SDS011;10562;-33.856;151.182;2023-04-25T03:52:34;11.07;;;2.50;;
20802;SDS011;10562;-33.856;151.182;2023-04-25T03:55:05;14.18;;;2.45;;
20802;SDS011;10562;-33.856;151.182;2023-04-25T03:57:36;12.07;;;2.45;;
20802;SDS011;10562;-33.856;151.182;2023-04-25T04:00:08;12.48;;;2.38;;
20802;SDS011;10562;-33.856;151.182;2023-04-25T04:02:40;9.45;;;2.17;;
20802;SDS011;10562;-33.856;151.182;2023-04-25T04:05:11;12.90;;;2.13;;
20802;SDS011;10562;-33.856;151.182;2023-04-25T04:07:43;9.38;;;2.33;;
20802;SDS011;10562;-33.856;151.182;2023-04-25T04:10:14;11.48;;;2.15;;
20802;SDS011;10562;-33.856;151.182;2023-04-25T04:12:45;12.57;;;2.22;;
20802;SDS011;10562;-33.856;151.182;2023-04-25T04:15:16;12.60;;;2.60;;
20802;SDS011;10562;-33.856;151.182;2023-04-25T04:17:47;15.02;;;2.35;;
20802;SDS011;10562;-33.856;151.182;2023-04-25T04:20:18;13.27;;;2.40;;
20802;SDS011;10562;-33.856;151.182;2023-04-25T04:22:51;15.85;;;2.75;;
20802;SDS011;10562;-33.856;151.182;2023-04-25T04:25:21;9.80;;;2.15;;
20802;SDS011;10562;-33.856;151.182;2023-04-25T04:27:52;14.55;;;2.50;;
20802;SDS011;10562;-33.856;151.182;2023-04-25T04:30:23;10.88;;;2.55;;
20802;SDS011;10562;-33.856;151.182;2023-04-25T04:32:55;13.70;;;2.10;;
20802;SDS011;10562;-33.856;151.182;2023-04-25T04:35:27;10.02;;;2.20;;
20802;SDS011;10562;-33.856;151.182;2023-04-25T04:37:59;11.90;;;1.90;;
20802;SDS011;10562;-33.856;151.182;2023-04-25T04:40:30;12.38;;;2.30;;
20802;SDS011;10562;-33.856;151.182;2023-04-25T04:43:01;11.90;;;2.38;;
20802;SDS011;10562;-33.856;151.182;2023-04-25T04:45:32;9.02;;;1.95;;
20802;SDS011;10562;-33.856;151.182;2023-04-25T04:48:02;10.57;;;2.25;;
20802;SDS011;10562;-33.856;151.182;2023-04-25T04:50:34;12.95;;;2.53;;
20802;SDS011;10562;-33.856;151.182;2023-04-25T04:53:08;11.20;;;2.10;;
20802;SDS011;10562;-33.856;151.182;2023-04-25T04:55:39;15.73;;;2.42;;
20802;SDS011;10562;-33.856;151.182;2023-04-25T04:58:10;11.88;;;2.30;;
20802;SDS011;10562;-33.856;151.182;2023-04-25T05:00:41;8.63;;;2.05;;
20802;SDS011;10562;-33.856;151.182;2023-04-25T05:03:12;11.77;;;2.10;;
20802;SDS011;10562;-33.856;151.182;2023-04-25T05:05:43;6.97;;;1.95;;
20802;SDS011;10562;-33.856;151.182;2023-04-25T05:08:16;14.27;;;2.78;;
20802;SDS011;10562;-33.856;151.182;2023-04-25T05:10:46;13.20;;;2.45;;
20802;SDS011;10562;-33.856;151.182;2023-04-25T05:13:17;13.68;;;2.50;;
20802;SDS011;10562;-33.856;151.182;2023-04-25T05:15:48;14.07;;;2.30;;
20802;SDS011;10562;-33.856;151.182;2023-04-25T05:18:19;13.68;;;2.60;;
20802;SDS011;10562;-33.856;151.182;2023-04-25T05:20:49;17.58;;;2.85;;
20802;SDS011;10562;-33.856;151.182;2023-04-25T05:23:22;9.85;;;2.22;;
20802;SDS011;10562;-33.856;151.182;2023-04-25T05:25:53;14.57;;;2.60;;
20802;SDS011;10562;-33.856;151.182;2023-04-25T05:28:24;12.50;;;2.50;;
20802;SDS011;10562;-33.856;151.182;2023-04-25T05:30:55;11.88;;;2.50;;
20802;SDS011;10562;-33.856;151.182;2023-04-25T05:33:26;14.38;;;2.40;;
20802;SDS011;10562;-33.856;151.182;2023-04-25T05:35:57;11.57;;;2.47;;
20802;SDS011;10562;-33.856;151.182;2023-04-25T05:38:30;25.35;;;7.85;;
20802;SDS011;10562;-33.856;151.182;2023-04-25T05:41:00;15.57;;;4.22;;
20802;SDS011;10562;-33.856;151.182;2023-04-25T05:43:31;13.20;;;2.78;;
20802;SDS011;10562;-33.856;151.182;2023-04-25T05:46:02;20.20;;;5.60;;
20802;SDS011;10562;-33.856;151.182;2023-04-25T05:48:33;14.43;;;2.50;;
20802;SDS011;10562;-33.856;151.182;2023-04-25T05:51:04;17.13;;;3.20;;
20802;SDS011;10562;-33.856;151.182;2023-04-25T05:53:37;15.85;;;2.78;;
20802;SDS011;10562;-33.856;151.182;2023-04-25T05:56:07;12.55;;;2.38;;
20802;SDS011;10562;-33.856;151.182;2023-04-25T05:58:38;14.25;;;2.30;;
20802;SDS011;10562;-33.856;151.182;2023-04-25T06:01:09;10.50;;;2.20;;
20802;SDS011;10562;-33.856;151.182;2023-04-25T06:03:40;13.43;;;2.42;;
20802;SDS011;10562;-33.856;151.182;2023-04-25T06:06:12;14.65;;;2.35;;
20802;SDS011;10562;-33.856;151.182;2023-04-25T06:08:45;12.38;;;2.20;;
20802;SDS011;10562;-33.856;151.182;2023-04-25T06:11:16;20.40;;;2.45;;
20802;SDS011;10562;-33.856;151.182;2023-04-25T06:13:47;13.85;;;2.17;;
20802;SDS011;10562;-33.856;151.182;2023-04-25T06:16:18;11.40;;;2.25;;
20802;SDS011;10562;-33.856;151.182;2023-04-25T06:18:48;7.90;;;1.70;;
20802;SDS011;10562;-33.856;151.182;2023-04-25T06:21:19;13.15;;;2.40;;
20802;SDS011;10562;-33.856;151.182;2023-04-25T06:23:52;14.57;;;2.40;;
20802;SDS011;10562;-33.856;151.182;2023-04-25T06:26:23;11.77;;;2.60;;
20802;SDS011;10562;-33.856;151.182;2023-04-25T06:28:53;14.52;;;2.28;;
20802;SDS011;10562;-33.856;151.182;2023-04-25T06:31:24;12.88;;;2.10;;
20802;SDS011;10562;-33.856;151.182;2023-04-25T06:33:55;14.00;;;2.00;;
20802;SDS011;10562;-33.856;151.182;2023-04-25T06:36:26;11.65;;;2.10;;
20802;SDS011;10562;-33.856;151.182;2023-04-25T06:38:58;12.10;;;2.17;;
20802;SDS011;10562;-33.856;151.182;2023-04-25T06:41:29;9.88;;;2.15;;
20802;SDS011;10562;-33.856;151.182;2023-04-25T06:44:00;9.20;;;1.88;;
20802;SDS011;10562;-33.856;151.182;2023-04-25T06:46:31;16.80;;;2.58;;
20802;SDS011;10562;-33.856;151.182;2023-04-25T06:49:02;11.15;;;2.10;;
20802;SDS011;10562;-33.856;151.182;2023-04-25T06:51:33;15.52;;;2.25;;
20802;SDS011;10562;-33.856;151.182;2023-04-25T06:54:06;10.18;;;2.20;;
20802;SDS011;10562;-33.856;151.182;2023-04-25T06:56:36;12.20;;;2.30;;
20802;SDS011;10562;-33.856;151.182;2023-04-25T06:59:07;10.57;;;1.90;;
20802;SDS011;10562;-33.856;151.182;2023-04-25T07:01:38;12.57;;;2.20;;
20802;SDS011;10562;-33.856;151.182;2023-04-25T07:04:09;12.77;;;2.20;;
20802;SDS011;10562;-33.856;151.182;2023-04-25T07:06:40;12.63;;;2.20;;
20802;SDS011;10562;-33.856;151.182;2023-04-25T07:09:15;17.63;;;2.30;;
20802;SDS011;10562;-33.856;151.182;2023-04-25T07:11:46;15.38;;;2.67;;
20802;SDS011;10562;-33.856;151.182;2023-04-25T07:14:17;16.98;;;2.58;;
20802;SDS011;10562;-33.856;151.182;2023-04-25T07:16:48;12.27;;;2.28;;
20802;SDS011;10562;-33.856;151.182;2023-04-25T07:19:19;11.85;;;2.50;;
20802;SDS011;10562;-33.856;151.182;2023-04-25T07:21:52;16.27;;;2.47;;
20802;SDS011;10562;-33.856;151.182;2023-04-25T07:24:25;14.90;;;2.45;;
20802;SDS011;10562;-33.856;151.182;2023-04-25T07:26:56;14.43;;;2.78;;
20802;SDS011;10562;-33.856;151.182;2023-04-25T07:29:27;15.73;;;2.15;;
20802;SDS011;10562;-33.856;151.182;2023-04-25T07:31:58;15.43;;;2.90;;
20802;SDS011;10562;-33.856;151.182;2023-04-25T07:34:29;12.88;;;2.42;;
20802;SDS011;10562;-33.856;151.182;2023-04-25T07:37:03;13.68;;;2.92;;
20802;SDS011;10562;-33.856;151.182;2023-04-25T07:39:36;13.93;;;2.63;;
20802;SDS011;10562;-33.856;151.182;2023-04-25T07:42:06;11.77;;;2.35;;
20802;SDS011;10562;-33.856;151.182;2023-04-25T07:44:37;10.32;;;2.17;;
20802;SDS011;10562;-33.856;151.182;2023-04-25T07:47:08;15.60;;;2.30;;
20802;SDS011;10562;-33.856;151.182;2023-04-25T07:49:39;16.00;;;2.45;;
20802;SDS011;10562;-33.856;151.182;2023-04-25T07:52:11;18.90;;;2.58;;
20802;SDS011;10562;-33.856;151.182;2023-04-25T07:54:44;14.75;;;2.33;;
20802;SDS011;10562;-33.856;151.182;2023-04-25T07:57:14;17.33;;;2.70;;
20802;SDS011;10562;-33.856;151.182;2023-04-25T07:59:46;14.93;;;2.67;;
20802;SDS011;10562;-33.856;151.182;2023-04-25T08:02:16;14.07;;;2.97;;
20802;SDS011;10562;-33.856;151.182;2023-04-25T08:04:47;14.52;;;3.00;;
20802;SDS011;10562;-33.856;151.182;2023-04-25T08:07:18;19.65;;;3.10;;
20802;SDS011;10562;-33.856;151.182;2023-04-25T08:09:51;16.50;;;3.40;;
20802;SDS011;10562;-33.856;151.182;2023-04-25T08:12:23;17.92;;;3.13;;
20802;SDS011;10562;-33.856;151.182;2023-04-25T08:14:54;19.77;;;3.20;;
20802;SDS011;10562;-33.856;151.182;2023-04-25T08:17:24;23.33;;;2.95;;
20802;SDS011;10562;-33.856;151.182;2023-04-25T08:19:55;16.73;;;2.80;;
20802;SDS011;10562;-33.856;151.182;2023-04-25T08:22:26;15.20;;;2.85;;
20802;SDS011;10562;-33.856;151.182;2023-04-25T08:25:00;19.67;;;3.47;;
20802;SDS011;10562;-33.856;151.182;2023-04-25T08:27:31;14.32;;;3.22;;
20802;SDS011;10562;-33.856;151.182;2023-04-25T08:30:02;21.35;;;2.90;;
20802;SDS011;10562;-33.856;151.182;2023-04-25T08:32:34;16.85;;;3.10;;
20802;SDS011;10562;-33.856;151.182;2023-04-25T08:35:06;16.75;;;2.90;;
20802;SDS011;10562;-33.856;151.182;2023-04-25T08:37:37;30.75;;;7.47;;
20802;SDS011;10562;-33.856;151.182;2023-04-25T08:40:10;54.03;;;17.42;;
20802;SDS011;10562;-33.856;151.182;2023-04-25T08:42:43;24.80;;;4.90;;
20802;SDS011;10562;-33.856;151.182;2023-04-25T08:45:14;23.17;;;4.40;;
20802;SDS011;10562;-33.856;151.182;2023-04-25T08:47:45;19.90;;;4.03;;
20802;SDS011;10562;-33.856;151.182;2023-04-25T08:50:17;16.20;;;3.78;;
20802;SDS011;10562;-33.856;151.182;2023-04-25T08:52:48;16.38;;;3.30;;
20802;SDS011;10562;-33.856;151.182;2023-04-25T08:55:24;17.50;;;3.00;;
20802;SDS011;10562;-33.856;151.182;2023-04-25T08:57:55;12.25;;;3.10;;
20802;SDS011;10562;-33.856;151.182;2023-04-25T09:00:26;18.02;;;2.90;;
20802;SDS011;10562;-33.856;151.182;2023-04-25T09:02:57;17.65;;;3.53;;
20802;SDS011;10562;-33.856;151.182;2023-04-25T09:05:29;21.05;;;3.65;;
20802;SDS011;10562;-33.856;151.182;2023-04-25T09:08:00;22.45;;;3.67;;
20802;SDS011;10562;-33.856;151.182;2023-04-25T09:10:33;17.98;;;3.40;;
20802;SDS011;10562;-33.856;151.182;2023-04-25T09:13:04;23.33;;;4.05;;
20802;SDS011;10562;-33.856;151.182;2023-04-25T09:15:46;18.95;;;3.50;;
20802;SDS011;10562;-33.856;151.182;2023-04-25T09:18:24;20.40;;;3.63;;
20802;SDS011;10562;-33.856;151.182;2023-04-25T09:20:56;18.58;;;5.60;;
20802;SDS011;10562;-33.856;151.182;2023-04-25T09:23:38;18.05;;;5.15;;
20802;SDS011;10562;-33.856;151.182;2023-04-25T09:26:12;15.50;;;3.70;;
20802;SDS011;10562;-33.856;151.182;2023-04-25T09:28:45;17.95;;;4.40;;
20802;SDS011;10562;-33.856;151.182;2023-04-25T09:31:21;15.55;;;3.90;;
20802;SDS011;10562;-33.856;151.182;2023-04-25T09:33:58;16.70;;;3.65;;
20802;SDS011;10562;-33.856;151.182;2023-04-25T09:36:30;20.05;;;4.32;;
20802;SDS011;10562;-33.856;151.182;2023-04-25T09:39:03;13.32;;;3.63;;
20802;SDS011;10562;-33.856;151.182;2023-04-25T09:41:47;18.83;;;3.55;;
20802;SDS011;10562;-33.856;151.182;2023-04-25T09:44:23;16.55;;;4.10;;
20802;SDS011;10562;-33.856;151.182;2023-04-25T09:46:54;20.40;;;4.22;;
20802;SDS011;10562;-33.856;151.182;2023-04-25T09:49:25;22.83;;;4.65;;
20802;SDS011;10562;-33.856;151.182;2023-04-25T09:51:56;16.63;;;4.15;;
20802;SDS011;10562;-33.856;151.182;2023-04-25T09:54:28;14.13;;;3.50;;
20802;SDS011;10562;-33.856;151.182;2023-04-25T09:57:01;14.85;;;3.58;;
20802;SDS011;10562;-33.856;151.182;2023-04-25T09:59:38;18.10;;;3.20;;
20802;SDS011;10562;-33.856;151.182;2023-04-25T10:02:13;13.60;;;3.05;;
20802;SDS011;10562;-33.856;151.182;2023-04-25T10:04:47;15.80;;;3.75;;
20802;SDS011;10562;-33.856;151.182;2023-04-25T10:07:20;19.25;;;3.33;;
20802;SDS011;10562;-33.856;151.182;2023-04-25T10:09:55;14.00;;;2.90;;
20802;SDS011;10562;-33.856;151.182;2023-04-25T10:12:31;15.27;;;3.30;;
20802;SDS011;10562;-33.856;151.182;2023-04-25T10:15:03;14.95;;;3.25;;
20802;SDS011;10562;-33.856;151.182;2023-04-25T10:17:35;17.55;;;3.80;;
20802;SDS011;10562;-33.856;151.182;2023-04-25T10:20:06;16.85;;;3.50;;
20802;SDS011;10562;-33.856;151.182;2023-04-25T10:22:39;15.48;;;3.17;;
20802;SDS011;10562;-33.856;151.182;2023-04-25T10:25:14;16.00;;;3.17;;
20802;SDS011;10562;-33.856;151.182;2023-04-25T10:27:47;14.88;;;3.40;;
20802;SDS011;10562;-33.856;151.182;2023-04-25T10:30:20;12.45;;;2.90;;
20802;SDS011;10562;-33.856;151.182;2023-04-25T10:32:51;17.13;;;3.17;;
20802;SDS011;10562;-33.856;151.182;2023-04-25T10:35:26;12.57;;;2.78;;
20802;SDS011;10562;-33.856;151.182;2023-04-25T10:38:04;18.63;;;3.25;;
20802;SDS011;10562;-33.856;151.182;2023-04-25T10:40:38;22.48;;;3.70;;
20802;SDS011;10562;-33.856;151.182;2023-04-25T10:46:13;17.85;;;3.80;;
20802;SDS011;10562;-33.856;151.182;2023-04-25T10:48:48;17.58;;;4.18;;
20802;SDS011;10562;-33.856;151.182;2023-04-25T10:51:20;17.80;;;3.80;;
20802;SDS011;10562;-33.856;151.182;2023-04-25T10:54:00;12.02;;;3.83;;
20802;SDS011;10562;-33.856;151.182;2023-04-25T10:56:32;18.15;;;3.90;;
20802;SDS011;10562;-33.856;151.182;2023-04-25T10:59:08;19.25;;;5.35;;
20802;SDS011;10562;-33.856;151.182;2023-04-25T11:01:40;16.27;;;5.90;;
20802;SDS011;10562;-33.856;151.182;2023-04-25T11:04:21;22.77;;;7.05;;
20802;SDS011;10562;-33.856;151.182;2023-04-25T11:07:02;17.50;;;6.70;;
20802;SDS011;10562;-33.856;151.182;2023-04-25T11:09:42;25.13;;;7.47;;
20802;SDS011;10562;-33.856;151.182;2023-04-25T11:12:15;22.58;;;7.57;;
20802;SDS011;10562;-33.856;151.182;2023-04-25T11:14:48;14.98;;;7.25;;
20802;SDS011;10562;-33.856;151.182;2023-04-25T11:17:20;24.98;;;6.80;;
20802;SDS011;10562;-33.856;151.182;2023-04-25T11:19:54;24.13;;;8.15;;
20802;SDS011;10562;-33.856;151.182;2023-04-25T11:22:25;25.77;;;8.00;;
20802;SDS011;10562;-33.856;151.182;2023-04-25T11:24:57;16.70;;;8.77;;
20802;SDS011;10562;-33.856;151.182;2023-04-25T11:27:33;18.83;;;8.02;;
20802;SDS011;10562;-33.856;151.182;2023-04-25T11:30:15;20.23;;;8.50;;
20802;SDS011;10562;-33.856;151.182;2023-04-25T11:32:47;19.23;;;7.80;;
20802;SDS011;10562;-33.856;151.182;2023-04-25T11:35:18;20.95;;;9.35;;
20802;SDS011;10562;-33.856;151.182;2023-04-25T11:37:49;14.85;;;8.25;;
20802;SDS011;10562;-33.856;151.182;2023-04-25T11:40:20;22.15;;;8.68;;
20802;SDS011;10562;-33.856;151.182;2023-04-25T11:42:51;17.75;;;9.05;;
20802;SDS011;10562;-33.856;151.182;2023-04-25T11:45:23;20.15;;;9.48;;
20802;SDS011;10562;-33.856;151.182;2023-04-25T11:47:54;19.05;;;8.90;;
20802;SDS011;10562;-33.856;151.182;2023-04-25T11:50:25;25.23;;;8.95;;
20802;SDS011;10562;-33.856;151.182;2023-04-25T11:52:58;18.60;;;9.32;;
20802;SDS011;10562;-33.856;151.182;2023-04-25T11:55:29;20.75;;;9.05;;
20802;SDS011;10562;-33.856;151.182;2023-04-25T11:58:00;20.85;;;9.50;;
20802;SDS011;10562;-33.856;151.182;2023-04-25T12:00:34;25.80;;;11.02;;
20802;SDS011;10562;-33.856;151.182;2023-04-25T12:03:05;18.92;;;9.32;;
20802;SDS011;10562;-33.856;151.182;2023-04-25T12:05:39;19.23;;;10.48;;
20802;SDS011;10562;-33.856;151.182;2023-04-25T12:08:10;16.05;;;9.65;;
20802;SDS011;10562;-33.856;151.182;2023-04-25T12:10:42;16.75;;;9.50;;
20802;SDS011;10562;-33.856;151.182;2023-04-25T12:13:20;22.73;;;10.15;;
20802;SDS011;10562;-33.856;151.182;2023-04-25T12:15:54;17.38;;;10.25;;
20802;SDS011;10562;-33.856;151.182;2023-04-25T12:18:25;21.13;;;10.50;;
20802;SDS011;10562;-33.856;151.182;2023-04-25T12:20:56;21.38;;;12.43;;
20802;SDS011;10562;-33.856;151.182;2023-04-25T12:23:28;25.60;;;12.27;;
20802;SDS011;10562;-33.856;151.182;2023-04-25T12:25:59;29.67;;;15.25;;
20802;SDS011;10562;-33.856;151.182;2023-04-25T12:28:31;27.48;;;17.13;;
20802;SDS011;10562;-33.856;151.182;2023-04-25T12:31:04;25.20;;;16.65;;
20802;SDS011;10562;-33.856;151.182;2023-04-25T12:33:36;36.03;;;20.52;;
20802;SDS011;10562;-33.856;151.182;2023-04-25T12:36:08;32.20;;;24.10;;
20802;SDS011;10562;-33.856;151.182;2023-04-25T12:38:40;32.80;;;22.20;;
20802;SDS011;10562;-33.856;151.182;2023-04-25T12:41:11;26.33;;;21.48;;
20802;SDS011;10562;-33.856;151.182;2023-04-25T12:43:42;26.52;;;19.10;;
20802;SDS011;10562;-33.856;151.182;2023-04-25T12:46:14;28.77;;;20.63;;
20802;SDS011;10562;-33.856;151.182;2023-04-25T12:48:45;27.63;;;20.48;;
20802;SDS011;10562;-33.856;151.182;2023-04-25T12:51:16;35.53;;;28.63;;
20802;SDS011;10562;-33.856;151.182;2023-04-25T12:53:47;32.65;;;24.88;;
20802;SDS011;10562;-33.856;151.182;2023-04-25T12:56:18;28.20;;;23.38;;
20802;SDS011;10562;-33.856;151.182;2023-04-25T12:58:49;26.83;;;24.05;;
20802;SDS011;10562;-33.856;151.182;2023-04-25T13:01:22;34.17;;;23.55;;
20802;SDS011;10562;-33.856;151.182;2023-04-25T13:03:53;31.30;;;24.77;;
20802;SDS011;10562;-33.856;151.182;2023-04-25T13:06:24;28.55;;;24.60;;
20802;SDS011;10562;-33.856;151.182;2023-04-25T13:08:56;29.05;;;24.60;;
20802;SDS011;10562;-33.856;151.182;2023-04-25T13:11:27;36.90;;;32.92;;
20802;SDS011;10562;-33.856;151.182;2023-04-25T13:13:57;31.27;;;27.60;;
20802;SDS011;10562;-33.856;151.182;2023-04-25T13:16:31;34.92;;;29.05;;
20802;SDS011;10562;-33.856;151.182;2023-04-25T13:19:02;31.23;;;28.13;;
20802;SDS011;10562;-33.856;151.182;2023-04-25T13:21:34;31.98;;;28.27;;
20802;SDS011;10562;-33.856;151.182;2023-04-25T13:24:05;29.05;;;26.00;;
20802;SDS011;10562;-33.856;151.182;2023-04-25T13:26:36;34.33;;;28.58;;
20802;SDS011;10562;-33.856;151.182;2023-04-25T13:29:07;27.75;;;24.77;;
20802;SDS011;10562;-33.856;151.182;2023-04-25T13:31:39;35.15;;;26.75;;
20802;SDS011;10562;-33.856;151.182;2023-04-25T13:34:10;30.80;;;27.50;;
20802;SDS011;10562;-33.856;151.182;2023-04-25T13:36:41;32.42;;;28.75;;
20802;SDS011;10562;-33.856;151.182;2023-04-25T13:39:12;34.83;;;30.48;;
20802;SDS011;10562;-33.856;151.182;2023-04-25T13:41:43;31.90;;;28.48;;
20802;SDS011;10562;-33.856;151.182;2023-04-25T13:44:14;31.55;;;28.27;;
20802;SDS011;10562;-33.856;151.182;2023-04-25T13:46:47;37.28;;;30.30;;
20802;SDS011;10562;-33.856;151.182;2023-04-25T13:49:18;35.28;;;31.63;;
20802;SDS011;10562;-33.856;151.182;2023-04-25T13:51:49;36.35;;;32.50;;
20802;SDS011;10562;-33.856;151.182;2023-04-25T13:54:19;37.70;;;33.83;;
20802;SDS011;10562;-33.856;151.182;2023-04-25T13:56:51;38.20;;;34.20;;
20802;SDS011;10562;-33.856;151.182;2023-04-25T13:59:24;35.63;;;31.92;;
20802;SDS011;10562;-33.856;151.182;2023-04-25T14:01:57;37.85;;;34.28;;
20802;SDS011;10562;-33.856;151.182;2023-04-25T14:04:28;42.60;;;38.38;;
20802;SDS011;10562;-33.856;151.182;2023-04-25T14:06:59;42.38;;;38.10;;
20802;SDS011;10562;-33.856;151.182;2023-04-25T14:09:31;42.88;;;38.40;;
20802;SDS011;10562;-33.856;151.182;2023-04-25T14:12:02;41.85;;;37.75;;
20802;SDS011;10562;-33.856;151.182;2023-04-25T14:14:33;41.70;;;37.47;;
20802;SDS011;10562;-33.856;151.182;2023-04-25T14:17:05;44.17;;;39.50;;
20802;SDS011;10562;-33.856;151.182;2023-04-25T14:19:37;44.80;;;40.50;;
20802;SDS011;10562;-33.856;151.182;2023-04-25T14:22:09;44.67;;;40.67;;
20802;SDS011;10562;-33.856;151.182;2023-04-25T14:24:40;50.50;;;46.20;;